CST,Max TemperatureF,Mean TemperatureF,Min TemperatureF,Max Dew PointF,MeanDew PointF,Min DewpointF,Max Humidity, Mean Humidity, Min Humidity, Max Sea Level PressureIn, Mean Sea Level PressureIn, Min Sea Level PressureIn, Max VisibilityMiles, Mean VisibilityMiles, Min VisibilityMiles, Max Wind SpeedMPH, Mean Wind SpeedMPH, Max Gust SpeedMPH,PrecipitationIn, CloudCover, Events, WindDirDegrees
2013-11-1,55,47,39,43,39,37,100,79,54,29.88,29.74,29.56,10,10,8,17,10,24,0.00,2,Rain,272
2013-11-2,51,42,32,41,36,30,100,77,47,30.18,30.07,29.88,10,10,10,16,9,25,0.00,3,,303
2013-11-3,57,44,32,37,33,30,100,70,38,30.20,30.11,29.99,10,10,10,24,7,30,0.00,0,,140
2013-11-4,55,50,44,48,44,36,100,81,62,30.15,30.04,29.98,10,10,5,17,10,22,0.00,5,Rain,135
2013-11-5,57,52,48,57,53,48,100,99,94,30.16,30.03,29.84,10,7,1,17,5,24,0.00,8,Rain,152
2013-11-6,57,44,30,57,35,28,100,86,57,30.29,30.11,29.81,10,9,2,24,13,28,0.00,1,Rain,296
2013-11-7,50,39,28,34,29,25,100,78,37,30.35,30.31,30.27,10,10,10,18,6,24,0.00,0,,263
2013-11-8,57,42,26,37,31,23,93,65,38,30.32,30.08,29.88,10,10,10,30,7,37,0.00,0,,156
2013-11-9,59,50,41,36,35,32,81,60,36,30.30,30.09,29.92,10,10,10,21,11,28,0.00,0,,263
2013-11-10,50,39,28,32,29,25,93,66,43,30.44,30.34,30.21,10,10,10,12,5,17,0.00,2,,224
2013-11-11,50,36,21,43,28,14,93,70,50,30.66,30.32,30.13,10,10,4,23,12,34,0.00,5,Rain-Snow,319
2013-11-12,32,23,14,16,12,9,93,70,40,30.84,30.74,30.65,10,10,10,13,8,17,0.00,0,,307
2013-11-13,46,32,19,19,13,7,74,48,21,30.62,30.38,30.13,10,10,10,22,12,28,0.00,0,,198
2013-11-14,53,44,35,28,25,21,60,50,35,30.12,30.00,29.93,10,10,10,20,15,24,0.00,0,,199
2013-11-15,55,46,37,41,33,28,87,63,41,29.96,29.88,29.77,10,10,10,16,8,22,0.00,2,,177
2013-11-16,66,56,46,59,53,41,100,85,73,29.77,29.55,29.43,10,10,7,29,17,39,0.00,5,Rain,170
2013-11-17,64,52,39,63,48,37,100,88,58,30.00,29.58,29.29,10,10,2,32,12,39,0.00,3,Rain,244
2013-11-18,50,41,32,37,32,28,100,75,47,30.29,30.18,30.00,10,10,10,18,10,23,0.00,0,,284
2013-11-19,53,40,28,32,29,27,93,66,44,30.29,30.20,30.08,10,10,10,17,7,24,0.00,1,,132
2013-11-20,41,38,35,39,33,23,100,84,49,30.08,30.01,29.92,10,10,2,18,11,25,0.00,6,Rain-Snow,137
2013-11-21,41,34,28,41,36,28,100,99,93,30.38,30.16,30.01,10,9,2,17,5,22,0.00,5,Rain,350
2013-11-22,28,22,17,28,23,16,100,93,86,30.59,30.53,30.38,10,10,4,15,11,20,0.00,4,Rain-Snow,332
2013-11-23,19,14,8,16,9,5,93,76,58,30.78,30.72,30.58,10,10,10,21,14,26,0.00,0,,339
2013-11-24,28,17,6,12,7,5,92,66,40,30.75,30.57,30.31,10,10,10,17,4,20,0.00,0,,182
2013-11-25,37,30,24,27,20,12,93,66,52,30.31,30.18,30.11,10,10,10,18,12,22,0.00,3,,226
2013-11-26,32,24,17,25,17,9,100,73,44,30.34,30.22,30.12,10,10,10,24,10,31,0.00,2,,318
2013-11-27,26,18,10,14,9,5,92,64,40,30.39,30.29,30.13,10,10,10,14,7,18,0.00,0,,261
2013-11-28,33,25,15,18,16,14,93,66,48,30.51,30.29,30.09,10,10,10,17,10,23,0.00,0,,285
2013-11-29,41,28,14,25,19,10,100,74,45,30.54,30.43,30.27,10,10,10,14,4,,0.00,0,,139
2013-11-30,50,39,28,32,29,25,93,73,50,30.26,30.14,30.06,10,10,10,14,7,20,0.00,0,,198